createdAt,value
2018-05-02T00:01:32.268Z,1.97
2018-05-02T00:03:59.007Z,1.93
2018-05-02T00:06:25.638Z,1.90
2018-05-02T00:08:52.392Z,1.70
2018-05-02T00:11:19.239Z,1.83
2018-05-02T00:13:46.090Z,1.70
2018-05-02T00:16:12.731Z,2.00
2018-05-02T00:18:39.471Z,1.63
2018-05-02T00:21:06.213Z,1.70
2018-05-02T00:23:32.962Z,2.03
2018-05-02T00:26:00.732Z,1.93
2018-05-02T00:28:27.424Z,1.80
2018-05-02T00:30:54.117Z,2.10
2018-05-02T00:33:20.868Z,2.80
2018-05-02T00:35:47.614Z,3.33
2018-05-02T00:38:14.359Z,2.93
2018-05-02T00:40:41.106Z,2.80
2018-05-02T00:43:07.848Z,2.80
2018-05-02T00:45:34.602Z,3.20
2018-05-02T00:48:01.339Z,2.80
2018-05-02T00:50:28.092Z,2.07
2018-05-02T00:52:54.833Z,1.83
2018-05-02T00:55:21.573Z,1.90
2018-05-02T00:57:48.324Z,1.97
2018-05-02T01:00:14.964Z,1.90
2018-05-02T01:02:41.815Z,1.80
2018-05-02T01:05:08.457Z,1.90
2018-05-02T01:07:35.209Z,1.53
2018-05-02T01:10:01.886Z,1.83
2018-05-02T01:12:28.590Z,1.90
2018-05-02T01:14:55.338Z,1.50
2018-05-02T01:17:22.077Z,1.80
2018-05-02T01:19:48.821Z,1.67
2018-05-02T01:22:15.571Z,1.60
2018-05-02T01:24:42.323Z,1.50
2018-05-02T01:27:09.060Z,1.60
2018-05-02T01:29:35.815Z,1.60
2018-05-02T01:32:02.554Z,1.50
2018-05-02T01:34:29.294Z,1.30
2018-05-02T01:36:56.046Z,1.90
2018-05-02T01:39:22.790Z,1.77
2018-05-02T01:41:49.539Z,1.60
2018-05-02T01:44:16.284Z,1.70
2018-05-02T01:46:42.972Z,1.80
2018-05-02T01:49:21.751Z,1.70
2018-05-02T01:51:48.493Z,1.77
2018-05-02T01:54:15.239Z,1.80
2018-05-02T01:56:41.996Z,1.70
2018-05-02T01:59:08.733Z,1.80
2018-05-02T02:01:35.473Z,1.80
2018-05-02T02:04:02.217Z,1.87
2018-05-02T02:06:28.967Z,2.10
2018-05-02T02:08:55.706Z,1.83
2018-05-02T02:11:22.458Z,1.80
2018-05-02T02:13:49.209Z,1.80
2018-05-02T02:16:15.951Z,2.10
2018-05-02T02:18:42.596Z,1.77
2018-05-02T02:21:09.339Z,1.70
2018-05-02T02:23:36.082Z,1.90
2018-05-02T02:26:02.822Z,1.97
2018-05-02T02:28:29.672Z,2.10
2018-05-02T02:30:56.424Z,2.00
2018-05-02T02:33:23.165Z,1.90
2018-05-02T02:35:49.908Z,2.00
2018-05-02T02:38:16.657Z,2.10
2018-05-02T02:40:44.430Z,2.10
2018-05-02T02:43:11.167Z,2.30
2018-05-02T02:45:37.918Z,2.27
2018-05-02T02:48:04.674Z,2.47
2018-05-02T02:50:31.512Z,2.73
2018-05-02T02:52:58.249Z,3.17
2018-05-02T02:55:25.008Z,3.10
2018-05-02T02:57:51.671Z,2.77
2018-05-02T03:00:18.392Z,2.40
2018-05-02T03:02:45.145Z,2.47
2018-05-02T03:05:11.887Z,2.23
2018-05-02T03:07:38.629Z,2.30
2018-05-02T03:10:05.480Z,2.33
2018-05-02T03:12:32.157Z,2.30
2018-05-02T03:14:58.857Z,2.10
2018-05-02T03:17:25.608Z,2.30
2018-05-02T03:19:52.460Z,2.30
2018-05-02T03:22:19.202Z,2.43
2018-05-02T03:24:45.951Z,2.33
2018-05-02T03:27:12.791Z,2.30
2018-05-02T03:29:39.473Z,2.50
2018-05-02T03:32:06.185Z,2.70
2018-05-02T03:34:32.935Z,2.57
2018-05-02T03:36:59.676Z,2.70
2018-05-02T03:39:26.426Z,2.63
2018-05-02T03:41:53.165Z,2.73
2018-05-02T03:44:19.905Z,2.87
2018-05-02T03:46:46.561Z,2.50
2018-05-02T03:49:13.301Z,3.13
2018-05-02T03:51:40.049Z,2.70
2018-05-02T03:54:06.693Z,2.60
2018-05-02T03:56:33.453Z,2.50
2018-05-02T03:59:00.197Z,2.77
2018-05-02T04:01:39.183Z,2.80
2018-05-02T04:04:18.025Z,2.40
2018-05-02T04:09:48.257Z,2.33
2018-05-02T04:12:19.917Z,2.20
2018-05-02T04:14:46.557Z,2.23
2018-05-02T04:17:13.297Z,2.50
2018-05-02T04:19:41.068Z,2.40
2018-05-02T04:22:07.839Z,2.30
2018-05-02T04:24:34.664Z,2.47
2018-05-02T04:27:01.410Z,2.20
2018-05-02T04:29:28.150Z,2.50
2018-05-02T04:31:54.907Z,2.23
2018-05-02T04:34:21.643Z,2.10
2018-05-02T04:36:48.397Z,2.53
2018-05-02T04:39:16.165Z,2.50
2018-05-02T04:41:42.947Z,2.37
2018-05-02T04:44:09.655Z,2.20
2018-05-02T04:46:36.397Z,2.50
2018-05-02T04:49:03.255Z,2.47
2018-05-02T04:51:29.992Z,2.57
2018-05-02T04:53:56.745Z,2.20
2018-05-02T04:56:23.593Z,2.03
2018-05-02T04:58:50.335Z,2.07
2018-05-02T05:01:17.072Z,2.00
2018-05-02T05:03:43.831Z,1.90
2018-05-02T05:06:10.569Z,1.63
2018-05-02T05:08:37.214Z,1.80
2018-05-02T05:11:03.958Z,1.53
2018-05-02T05:13:30.699Z,1.40
2018-05-02T05:15:57.548Z,1.50
2018-05-02T05:18:24.310Z,1.60
2018-05-02T05:20:50.940Z,1.70
2018-05-02T05:23:18.446Z,1.90
2018-05-02T05:25:45.247Z,1.90
2018-05-02T05:28:11.999Z,1.77
2018-05-02T05:30:38.741Z,1.70
2018-05-02T05:33:05.495Z,2.10
2018-05-02T05:35:32.124Z,1.90
2018-05-02T05:37:58.888Z,1.73
2018-05-02T05:40:25.714Z,2.30
2018-05-02T05:42:52.466Z,2.53
2018-05-02T05:45:19.206Z,2.17
2018-05-02T05:47:45.959Z,1.80
2018-05-02T05:50:12.706Z,1.60
2018-05-02T05:52:39.349Z,1.40
2018-05-02T05:55:06.199Z,1.67
2018-05-02T05:57:32.940Z,2.20
2018-05-02T05:59:59.680Z,1.97
2018-05-02T06:02:26.435Z,1.77
2018-05-02T06:04:53.181Z,1.70
2018-05-02T06:07:19.925Z,1.87
2018-05-02T06:09:46.664Z,2.00
2018-05-02T06:12:13.416Z,1.90
2018-05-02T06:14:40.265Z,1.70
2018-05-02T06:17:07.105Z,1.73
2018-05-02T06:19:33.858Z,1.90
2018-05-02T06:22:00.596Z,1.80
2018-05-02T06:24:27.449Z,1.70
2018-05-02T06:26:55.218Z,1.83
2018-05-02T06:29:21.863Z,1.80
2018-05-02T06:31:48.533Z,1.77
2018-05-02T06:34:15.255Z,1.40
2018-05-02T06:36:43.333Z,1.77
2018-05-02T06:39:10.176Z,1.80
2018-05-02T06:41:36.917Z,1.80
2018-05-02T06:44:03.682Z,1.90
2018-05-02T06:46:30.508Z,1.67
2018-05-02T06:48:57.262Z,1.60
2018-05-02T06:51:23.896Z,1.80
2018-05-02T06:53:50.753Z,1.63
2018-05-02T06:56:17.507Z,1.63
2018-05-02T06:58:44.340Z,1.57
2018-05-02T07:01:11.089Z,1.77
2018-05-02T07:03:37.734Z,1.50
2018-05-02T07:06:04.476Z,1.87
2018-05-02T07:08:31.321Z,2.00
2018-05-02T07:10:58.063Z,1.70
2018-05-02T07:13:24.797Z,1.70
2018-05-02T07:15:51.559Z,1.50
2018-05-02T07:18:18.204Z,1.63
2018-05-02T07:20:44.950Z,1.70
2018-05-02T07:23:11.797Z,1.73
2018-05-02T07:25:38.549Z,1.70
2018-05-02T07:28:05.291Z,1.60
2018-05-02T07:30:32.341Z,1.77
2018-05-02T07:32:59.105Z,1.70
2018-05-02T07:35:25.950Z,1.77
2018-05-02T07:37:52.684Z,1.80
2018-05-02T07:40:19.423Z,2.00
2018-05-02T07:42:46.176Z,1.83
2018-05-02T07:45:13.027Z,2.00
2018-05-02T07:47:39.765Z,1.90
2018-05-02T07:50:06.406Z,1.80
2018-05-02T07:52:33.115Z,2.03
2018-05-02T07:54:59.796Z,2.00
2018-05-02T07:57:26.543Z,1.97
2018-05-02T07:59:53.289Z,2.07
2018-05-02T08:02:20.033Z,2.00
2018-05-02T08:04:46.784Z,1.97
2018-05-02T08:07:14.653Z,1.63
2018-05-02T08:09:41.402Z,3.93
2018-05-02T08:12:08.245Z,7.80
2018-05-02T08:14:35.099Z,4.40
2018-05-02T08:17:01.936Z,3.93
2018-05-02T08:19:28.688Z,2.17
2018-05-02T08:21:55.427Z,1.77
2018-05-02T08:24:22.177Z,1.97
2018-05-02T08:26:48.928Z,1.60
2018-05-02T08:29:15.667Z,1.93
2018-05-02T08:31:42.311Z,1.83
2018-05-02T08:34:09.050Z,2.13
2018-05-02T08:36:36.419Z,1.70
2018-05-02T08:39:03.264Z,1.80
2018-05-02T08:41:31.041Z,1.70
2018-05-02T08:43:57.883Z,2.10
2018-05-02T08:46:39.463Z,1.77
2018-05-02T08:49:06.214Z,2.17
2018-05-02T08:51:32.957Z,1.60
2018-05-02T08:53:59.727Z,1.80
2018-05-02T08:56:26.551Z,1.60
2018-05-02T08:58:53.285Z,2.00
2018-05-02T09:01:20.040Z,1.80
2018-05-02T09:03:46.923Z,1.93
2018-05-02T09:06:13.633Z,1.83
2018-05-02T09:08:40.380Z,1.70
2018-05-02T09:11:07.219Z,2.03
2018-05-02T09:13:33.974Z,1.67
2018-05-02T09:16:00.712Z,1.93
2018-05-02T09:18:27.564Z,1.90
2018-05-02T09:20:54.305Z,1.93
2018-05-02T09:23:21.159Z,2.33
2018-05-02T09:25:48.053Z,2.30
2018-05-02T09:28:14.750Z,2.10
2018-05-02T09:30:41.497Z,2.40
2018-05-02T09:33:08.239Z,2.20
2018-05-02T09:35:34.907Z,2.30
2018-05-02T09:38:01.627Z,2.67
2018-05-02T09:40:28.481Z,2.50
2018-05-02T09:42:55.226Z,2.57
2018-05-02T09:45:21.972Z,2.30
2018-05-02T09:47:48.815Z,2.53
2018-05-02T09:50:15.573Z,2.50
2018-05-02T09:52:42.303Z,2.80
2018-05-02T09:55:09.054Z,2.97
2018-05-02T09:57:35.905Z,3.20
2018-05-02T10:00:02.857Z,3.10
2018-05-02T10:02:29.609Z,3.07
2018-05-02T10:04:56.340Z,3.30
2018-05-02T10:07:23.037Z,3.23
2018-05-02T10:09:49.728Z,2.93
2018-05-02T10:12:16.479Z,2.80
2018-05-02T10:14:43.174Z,3.13
2018-05-02T10:17:09.975Z,3.20
2018-05-02T10:19:36.712Z,3.37
2018-05-02T10:22:03.451Z,3.10
2018-05-02T10:24:30.205Z,3.07
2018-05-02T10:26:56.942Z,3.00
2018-05-02T10:29:23.697Z,3.13
2018-05-02T10:31:50.433Z,3.90
2018-05-02T10:34:17.088Z,3.57
2018-05-02T10:36:43.728Z,3.30
2018-05-02T10:39:10.481Z,3.77
2018-05-02T10:41:37.164Z,3.77
2018-05-02T10:44:03.858Z,4.30
2018-05-02T10:46:30.509Z,3.63
2018-05-02T10:48:57.153Z,4.20
2018-05-02T10:51:23.892Z,4.43
2018-05-02T10:53:50.742Z,4.30
2018-05-02T10:56:17.486Z,4.77
2018-05-02T10:58:44.241Z,4.30
2018-05-02T11:01:10.988Z,4.80
2018-05-02T11:03:37.724Z,4.67
2018-05-02T11:06:04.296Z,4.03
2018-05-02T11:08:31.010Z,4.43
2018-05-02T11:10:57.760Z,4.47
2018-05-02T11:13:24.403Z,4.60
2018-05-02T11:15:51.138Z,5.10
2018-05-02T11:18:18.718Z,5.20
2018-05-02T11:20:45.454Z,4.83
2018-05-02T11:23:13.010Z,5.30
2018-05-02T11:25:39.663Z,5.47
2018-05-02T11:28:06.405Z,5.27
2018-05-02T11:30:33.265Z,4.53
2018-05-02T11:33:00.009Z,5.10
2018-05-02T11:35:26.748Z,5.00
2018-05-02T11:37:53.489Z,5.63
2018-05-02T11:40:20.237Z,4.97
2018-05-02T11:42:46.977Z,9.03
2018-05-02T11:45:13.733Z,6.00
2018-05-02T11:47:40.411Z,5.50
2018-05-02T11:50:07.124Z,5.23
2018-05-02T11:52:33.964Z,5.57
2018-05-02T11:55:00.654Z,5.60
2018-05-02T11:57:27.363Z,5.70
2018-05-02T11:59:54.097Z,5.67
2018-05-02T12:02:21.762Z,5.60
2018-05-02T12:04:48.519Z,5.70
2018-05-02T12:07:15.357Z,5.53
2018-05-02T12:09:42.108Z,5.40
2018-05-02T12:12:08.848Z,5.40
2018-05-02T12:14:35.698Z,5.70
2018-05-02T12:17:02.452Z,6.37
2018-05-02T12:19:29.092Z,6.20
2018-05-02T12:21:56.028Z,6.10
2018-05-02T12:24:22.693Z,5.93
2018-05-02T12:26:49.424Z,6.03
2018-05-02T12:29:16.278Z,5.60
2018-05-02T12:31:43.015Z,6.53
2018-05-02T12:34:09.765Z,6.60
2018-05-02T12:36:36.514Z,6.57
2018-05-02T12:39:03.359Z,6.53
2018-05-02T12:41:30.205Z,6.03
2018-05-02T12:43:57.050Z,6.57
2018-05-02T12:46:23.799Z,7.00
2018-05-02T12:48:50.552Z,6.97
2018-05-02T12:51:17.390Z,6.80
2018-05-02T12:53:44.141Z,7.23
2018-05-02T12:56:10.932Z,6.90
2018-05-02T12:58:37.631Z,7.40
2018-05-02T13:01:05.394Z,6.60
2018-05-02T13:03:32.144Z,6.23
2018-05-02T13:05:58.790Z,6.77
2018-05-02T13:08:25.536Z,6.00
2018-05-02T13:10:52.379Z,6.43
2018-05-02T13:13:19.226Z,7.07
2018-05-02T13:15:46.076Z,6.68
2018-05-02T13:18:12.830Z,6.35
2018-05-02T13:20:39.568Z,6.50
2018-05-02T13:23:06.210Z,6.12
2018-05-02T13:25:32.949Z,6.28
2018-05-02T13:27:59.802Z,6.07
2018-05-02T13:30:26.560Z,6.03
2018-05-02T13:32:53.192Z,6.07
2018-05-02T13:35:19.936Z,5.78
2018-05-02T13:37:46.686Z,5.57
2018-05-02T13:40:13.426Z,5.62
2018-05-02T13:42:40.275Z,5.53
2018-05-02T13:45:07.050Z,6.30
2018-05-02T13:47:33.898Z,5.95
2018-05-02T13:50:00.718Z,6.37
2018-05-02T13:52:28.591Z,6.18
2018-05-02T13:54:55.229Z,6.25
2018-05-02T13:57:22.082Z,6.32
2018-05-02T13:59:48.938Z,6.50
2018-05-02T14:02:15.675Z,6.47
2018-05-02T14:04:42.453Z,6.50
2018-05-02T14:07:09.167Z,6.93
2018-05-02T14:09:35.932Z,7.05
2018-05-02T14:12:02.755Z,7.37
2018-05-02T14:14:29.505Z,7.03
2018-05-02T14:16:56.251Z,7.45
2018-05-02T14:19:23.100Z,7.22
2018-05-02T14:21:49.739Z,7.72
2018-05-02T14:24:16.477Z,6.97
2018-05-02T14:26:43.232Z,7.55
2018-05-02T14:29:09.971Z,6.78
2018-05-02T14:31:36.738Z,7.45
2018-05-02T14:34:03.682Z,7.05
2018-05-02T14:36:30.417Z,6.82
2018-05-02T14:38:58.184Z,6.78
2018-05-02T14:41:26.057Z,7.07
2018-05-02T14:43:52.905Z,7.35
2018-05-02T14:46:19.647Z,7.25
2018-05-02T14:48:46.400Z,6.80
2018-05-02T14:51:13.155Z,6.68
2018-05-02T14:53:39.891Z,7.50
2018-05-02T14:56:06.739Z,6.20
2018-05-02T14:58:33.479Z,6.60
2018-05-02T15:01:00.235Z,6.70
2018-05-02T15:03:26.972Z,6.95
2018-05-02T15:05:53.716Z,7.10
2018-05-02T15:08:21.542Z,6.47
2018-05-02T15:10:48.443Z,7.43
2018-05-02T15:13:15.187Z,6.97
2018-05-02T15:15:41.929Z,7.07
2018-05-02T15:18:08.778Z,7.20
2018-05-02T15:20:35.521Z,7.23
2018-05-02T15:23:02.184Z,6.77
2018-05-02T15:25:28.911Z,6.60
2018-05-02T15:27:55.661Z,6.77
2018-05-02T15:30:22.401Z,7.03
2018-05-02T15:32:49.254Z,6.83
2018-05-02T15:35:15.996Z,7.00
2018-05-02T15:37:42.684Z,6.53
2018-05-02T15:40:09.582Z,7.00
2018-05-02T15:44:17.548Z,6.67
2018-05-02T15:46:44.296Z,6.33
2018-05-02T15:49:11.030Z,7.60
2018-05-02T15:51:37.679Z,6.83
2018-05-02T15:54:04.369Z,6.73
2018-05-02T15:56:31.582Z,7.17
2018-05-02T15:58:59.799Z,6.83
2018-05-02T16:01:26.602Z,7.10
2018-05-02T16:03:53.303Z,7.00
2018-05-02T16:06:19.992Z,7.20
2018-05-02T16:08:47.042Z,7.00
2018-05-02T16:11:13.797Z,7.13
2018-05-02T16:13:40.634Z,7.00
2018-05-02T16:16:08.409Z,7.17
2018-05-02T16:18:35.148Z,7.10
2018-05-02T16:21:01.897Z,7.17
2018-05-02T16:23:28.641Z,7.37
2018-05-02T16:25:55.461Z,6.80
2018-05-02T16:28:22.131Z,7.30
2018-05-02T16:30:48.883Z,7.00
2018-05-02T16:33:15.571Z,7.20
2018-05-02T16:35:42.370Z,7.63
2018-05-02T16:38:09.114Z,7.30
2018-05-02T16:40:36.065Z,7.40
2018-05-02T16:43:02.914Z,7.33
2018-05-02T16:45:29.669Z,8.23
2018-05-02T16:47:56.412Z,8.20
2018-05-02T16:50:23.150Z,8.00
2018-05-02T16:52:49.898Z,8.40
2018-05-02T16:55:16.637Z,8.13
2018-05-02T16:57:43.358Z,7.33
2018-05-02T17:00:10.230Z,8.23
2018-05-02T17:02:37.080Z,7.67
2018-05-02T17:07:45.205Z,8.67
2018-05-02T17:10:11.955Z,8.57
2018-05-02T17:12:39.758Z,8.80
2018-05-02T17:15:06.468Z,8.73
2018-05-02T17:17:33.215Z,8.87
2018-05-02T17:19:59.959Z,8.67
2018-05-02T17:22:27.741Z,8.23
2018-05-02T17:24:54.622Z,9.20
2018-05-02T17:27:21.532Z,8.93
2018-05-02T17:29:49.291Z,9.83
2018-05-02T17:32:16.042Z,9.80
2018-05-02T17:34:42.897Z,9.67
2018-05-02T17:37:10.762Z,9.77
2018-05-02T17:39:37.502Z,9.43
2018-05-02T17:42:04.457Z,9.27
2018-05-02T17:44:31.304Z,9.43
2018-05-02T17:46:58.048Z,9.83
2018-05-02T17:49:24.797Z,9.90
2018-05-02T17:51:51.539Z,9.90
2018-05-02T17:54:18.299Z,10.00
2018-05-02T17:56:45.028Z,10.27
2018-05-02T17:59:11.885Z,10.30
2018-05-02T18:01:38.522Z,9.97
2018-05-02T18:04:05.272Z,10.73
2018-05-02T18:06:32.114Z,10.47
2018-05-02T18:08:58.863Z,10.87
2018-05-02T18:11:25.603Z,11.30
2018-05-02T18:14:01.368Z,11.53
2018-05-02T18:16:28.104Z,11.83
2018-05-02T18:18:54.845Z,11.77
2018-05-02T18:21:21.698Z,11.30
2018-05-02T18:23:48.447Z,12.70
2018-05-02T18:26:15.191Z,11.23
2018-05-02T18:28:42.038Z,12.83
2018-05-02T18:31:09.805Z,12.43
2018-05-02T18:33:36.551Z,12.47
2018-05-02T18:36:03.406Z,12.47
2018-05-02T18:38:30.142Z,12.10
2018-05-02T18:40:56.893Z,11.63
2018-05-02T18:43:24.865Z,12.00
2018-05-02T18:45:51.612Z,11.83
2018-05-02T18:48:18.356Z,12.97
2018-05-02T18:50:45.062Z,13.90
2018-05-02T18:53:11.836Z,14.73
2018-05-02T18:55:38.515Z,14.10
2018-05-02T18:58:05.232Z,14.77
2018-05-02T19:00:31.980Z,15.07
2018-05-02T19:02:58.623Z,14.97
2018-05-02T19:05:25.573Z,15.57
2018-05-02T19:07:52.328Z,15.27
2018-05-02T19:10:19.067Z,15.57
2018-05-02T19:12:45.814Z,14.70
2018-05-02T19:15:12.456Z,15.10
2018-05-02T19:17:45.337Z,14.73
2018-05-02T19:20:18.017Z,15.10
2018-05-02T19:22:44.661Z,14.80
2018-05-02T19:25:17.551Z,15.10
2018-05-02T19:27:44.192Z,15.33
2018-05-02T19:30:10.943Z,15.43
2018-05-02T19:32:43.521Z,15.70
2018-05-02T19:35:10.271Z,16.23
2018-05-02T19:37:37.012Z,16.90
2018-05-02T19:40:09.697Z,15.77
2018-05-02T19:42:43.747Z,16.33
2018-05-02T19:45:10.592Z,15.60
2018-05-02T19:47:37.294Z,16.23
2018-05-02T19:50:04.865Z,16.10
2018-05-02T19:55:25.668Z,15.43
2018-05-02T19:57:52.522Z,15.57
2018-05-02T20:00:25.511Z,15.60
2018-05-02T20:02:58.391Z,15.83
2018-05-02T20:05:25.144Z,15.80
2018-05-02T20:07:51.883Z,14.80
2018-05-02T20:10:24.507Z,15.47
2018-05-02T20:12:57.284Z,15.43
2018-05-02T20:15:24.094Z,15.87
2018-05-02T20:17:50.838Z,16.43
2018-05-02T20:20:17.493Z,16.53
2018-05-02T20:22:44.327Z,15.77
2018-05-02T20:25:11.120Z,15.90
2018-05-02T20:27:37.818Z,16.17
2018-05-02T20:30:04.779Z,17.27
2018-05-02T20:32:31.523Z,16.40
2018-05-02T20:34:58.261Z,16.23
2018-05-02T20:37:26.033Z,16.60
2018-05-02T20:39:52.886Z,17.20
2018-05-02T20:42:19.623Z,16.53
2018-05-02T20:44:46.317Z,16.70
2018-05-02T20:47:13.014Z,17.17
2018-05-02T20:49:39.771Z,17.97
2018-05-02T20:52:06.509Z,17.67
2018-05-02T20:54:33.248Z,17.83
2018-05-02T20:56:59.999Z,17.73
2018-05-02T20:59:26.747Z,17.93
2018-05-02T21:01:53.491Z,18.00
2018-05-02T21:04:20.231Z,18.57
2018-05-02T21:06:46.992Z,17.80
2018-05-02T21:09:13.722Z,18.23
2018-05-02T21:11:40.476Z,18.63
2018-05-02T21:14:07.212Z,18.57
2018-05-02T21:16:33.865Z,19.33
2018-05-02T21:19:00.607Z,19.27
2018-05-02T21:21:27.446Z,17.83
2018-05-02T21:23:54.099Z,20.30
2018-05-02T21:26:20.839Z,19.47
2018-05-02T21:28:47.588Z,19.17
2018-05-02T21:31:14.329Z,20.10
2018-05-02T21:33:41.024Z,19.53
2018-05-02T21:36:07.822Z,20.20
2018-05-02T21:38:34.465Z,20.37
2018-05-02T21:41:01.214Z,22.23
2018-05-02T21:43:27.851Z,21.10
2018-05-02T21:45:54.496Z,20.50
2018-05-02T21:48:21.248Z,20.63
2018-05-02T21:50:47.985Z,21.17
2018-05-02T21:53:14.632Z,20.67
2018-05-02T21:55:41.478Z,19.90
2018-05-02T21:58:08.129Z,20.60
2018-05-02T22:00:34.870Z,20.70
2018-05-02T22:03:01.624Z,20.60
2018-05-02T22:05:28.361Z,21.20
2018-05-02T22:07:55.071Z,21.50
2018-05-02T22:10:21.755Z,21.37
2018-05-02T22:12:48.590Z,22.27
2018-05-02T22:15:15.246Z,22.00
2018-05-02T22:17:41.886Z,22.57
2018-05-02T22:20:08.628Z,22.97
2018-05-02T22:22:35.380Z,22.60
2018-05-02T22:25:02.117Z,21.80
2018-05-02T22:27:28.866Z,21.40
2018-05-02T22:29:55.606Z,22.23
2018-05-02T22:32:22.360Z,23.83
2018-05-02T22:34:49.098Z,22.60
2018-05-02T22:37:15.855Z,23.10
2018-05-02T22:39:42.593Z,22.80
2018-05-02T22:42:09.348Z,21.87
2018-05-02T22:44:35.983Z,21.90
2018-05-02T22:47:02.726Z,22.93
2018-05-02T22:49:29.475Z,22.57
2018-05-02T22:51:56.227Z,23.67
2018-05-02T22:54:22.969Z,23.10
2018-05-02T22:56:49.809Z,22.60
2018-05-02T22:59:16.585Z,22.97
2018-05-02T23:01:43.206Z,23.27
2018-05-02T23:04:09.950Z,22.73
2018-05-02T23:06:36.690Z,23.60
2018-05-02T23:09:03.542Z,24.67
2018-05-02T23:11:30.281Z,24.67
2018-05-02T23:13:57.034Z,24.77
2018-05-02T23:16:24.802Z,23.77
2018-05-02T23:18:51.545Z,24.43
2018-05-02T23:21:18.287Z,24.73
2018-05-02T23:23:45.037Z,23.97
2018-05-02T23:26:11.775Z,22.73
2018-05-02T23:28:39.445Z,24.23
2018-05-02T23:31:06.086Z,23.67
2018-05-02T23:33:32.939Z,24.03
2018-05-02T23:35:59.687Z,24.30
2018-05-02T23:38:26.436Z,25.20
2018-05-02T23:40:53.279Z,23.37
2018-05-02T23:43:20.021Z,25.57
2018-05-02T23:45:46.774Z,24.43
2018-05-02T23:48:13.475Z,25.67
2018-05-02T23:50:40.096Z,25.03
2018-05-02T23:53:06.653Z,26.10
2018-05-02T23:55:33.337Z,25.93
2018-05-02T23:58:00.087Z,25.20
